To NAV CANADA Home Page Login to a new session Search on AWWS site Feedback and Comments Disclaimer Vers la page française équivalente Tips FAQ What's new on the site To the Forecasts and Observations / NOTAM section To "File a Flight Plan" website Publications and other links Update of the User's profile FIC Telephone Numbers My Weather Data Folder Route Weather Data Regional Weather Data Local Weather Data To the Forecasts and Observations / NOTAM section
Request Generated 10/17/2017 at 01:50:38 UTC . Weather information available at that time is displayed.

METAR/TAF

THOMPSON/MB    

SPECI CYTH 170113Z 31011G18KT 290V350 12SM -SHRA OVC012 03/02 A2960
RMK SC8 CVCTV CLD EMBD CIG RAG SLP037=
METAR CYTH 170100Z 32013G23KT 280V350 12SM -SHRA OVC018 04/01 A2959
RMK SC8 CVCTV CLD EMBD SLP033=
METAR CYTH 170000Z 30015G23KT 12SM -SHRA BKN018 OVC035 04/03 A2954
RMK SC6SC2 CVCTV CLD EMBD PRESRR SLP017=
METAR CYTH 162300Z CCA 30024G36KT 15SM -SHRA OVC025 06/03 A2948 RMK
SC8 CVCTV CLD EMBD PRESRR SLP997=
METAR CYTH 162300Z 30024G36KT 15SM -SHRA OVC025 06/03 A2948 RMK SC8
PRESRR SLP997=

TAF CYTH 170038Z 1701/1713 30015G25KT P6SM SCT015 OVC030 TEMPO
1701/1703 6SM -SHRA BR BKN015 OVC030
FM170300 33012G22KT P6SM SCT007 OVC020 TEMPO 1703/1707 3SM -DZ BR
OVC006
FM170700 03005KT P6SM SCT005 OVC012 TEMPO 1707/1713 2SM -SN BR
RMK NXT FCST BY 170700Z=
Your time UTC time
Weather data provided by Environment Canada and NAV CANADA